Time;durP1;ratioP1;P1;durP2;ratioP2;P2;SDS_P1;SDS_P2;PMS_P1;PMS_P2;Temp;Humidity;BMP_temperature;BMP_pressure;BME280_temperature;BME280_humidity;BME280_pressure;Samples;Min_cycle;Max_cycle;Signal;HPM_P1;HPM_P2
2022/12/21 00:01:27;;;;;;;8.38;6.25;;;;;;;20.47;40.76;95881.59;5006442;28;20049;-61
2022/12/21 00:04:00;;;;;;;8.57;6.57;;;;;;;19.88;40.57;95802.69;5011903;28;20060;-61
2022/12/21 00:06:28;;;;;;;9.55;6.43;;;;;;;20.14;40.74;95845.78;4993870;28;20425;-60
2022/12/21 00:08:54;;;;;;;8.98;6.57;;;;;;;20.44;41.00;95887.94;5006759;28;20112;-60
2022/12/21 00:11:23;;;;;;;9.77;6.93;;;;;;;20.41;40.60;95869.91;5005829;28;20038;-60
2022/12/21 00:13:49;;;;;;;9.98;6.90;;;;;;;19.83;40.81;95778.91;4997759;28;20049;-61
2022/12/21 00:16:17;;;;;;;8.73;6.40;;;;;;;20.28;40.66;95864.00;5012272;28;20529;-63
2022/12/21 00:18:43;;;;;;;9.07;6.82;;;;;;;20.42;40.66;95881.50;4999111;28;20041;-60
2022/12/21 00:21:16;;;;;;;9.05;6.68;;;;;;;19.81;40.47;95786.78;5000928;28;20042;-61
2022/12/21 00:23:42;;;;;;;10.20;7.13;;;;;;;19.54;40.70;95746.41;5006551;28;20799;-61
2022/12/21 00:26:07;;;;;;;8.52;6.70;;;;;;;20.41;40.60;95883.47;4987301;28;20187;-61
2022/12/21 00:28:33;;;;;;;10.35;7.30;;;;;;;20.41;40.74;95874.59;4986196;28;20519;-61
2022/12/21 00:31:05;;;;;;;8.23;6.45;;;;;;;20.38;40.91;95868.13;5005863;28;20125;-61
2022/12/21 00:33:30;;;;;;;8.98;6.72;;;;;;;19.78;40.60;95782.28;5005483;28;20073;-61
2022/12/21 00:35:56;;;;;;;9.95;6.97;;;;;;;20.33;40.80;95865.31;5003828;28;20061;-61
2022/12/21 00:38:21;;;;;;;9.93;7.13;;;;;;;20.40;40.67;95860.25;5006354;28;21209;-60
2022/12/21 00:40:47;;;;;;;9.95;7.20;;;;;;;19.53;40.78;95734.06;5018018;28;20536;-61
2022/12/21 00:43:12;;;;;;;9.65;7.00;;;;;;;20.38;40.60;95868.13;4971037;28;20518;-61
2022/12/21 00:45:38;;;;;;;9.18;6.72;;;;;;;20.40;40.65;95871.09;5018948;28;20045;-61
2022/12/21 00:48:04;;;;;;;9.95;7.00;;;;;;;20.41;40.72;95864.47;5015464;28;20037;-60
2022/12/21 00:50:32;;;;;;;10.77;6.80;;;;;;;20.40;40.53;95860.25;5018911;28;20080;-60
2022/12/21 00:52:57;;;;;;;8.93;7.03;;;;;;;20.33;40.72;95849.81;5010933;28;20129;-61
2022/12/21 00:55:23;;;;;;;9.15;7.00;;;;;;;20.40;40.65;95849.41;5004053;28;20050;-61
2022/12/21 00:57:48;;;;;;;9.55;7.03;;;;;;;19.87;40.96;95771.38;5005154;28;20053;-60
2022/12/21 01:00:14;;;;;;;11.30;7.97;;;;;;;20.23;40.52;95813.13;5001159;28;20042;-61
2022/12/21 01:02:39;;;;;;;9.75;7.00;;;;;;;20.19;40.35;95795.56;5005568;28;20022;-60
2022/12/21 01:05:05;;;;;;;10.35;7.72;;;;;;;20.35;40.76;95831.09;5005225;28;20045;-61
2022/12/21 01:07:30;;;;;;;10.02;7.35;;;;;;;18.87;40.58;95609.56;5005009;28;20140;-61
2022/12/21 01:09:56;;;;;;;10.82;7.75;;;;;;;20.38;40.74;95830.16;5015885;28;20550;-61
2022/12/21 01:12:21;;;;;;;9.82;7.05;;;;;;;18.92;40.82;95614.31;5012924;28;20499;-61
2022/12/21 01:14:46;;;;;;;10.38;6.78;;;;;;;20.37;40.77;95838.75;5022159;28;20421;-60
2022/12/21 01:17:12;;;;;;;10.20;7.70;;;;;;;20.18;40.42;95811.09;5009036;28;20425;-61
2022/12/21 01:19:37;;;;;;;9.25;6.97;;;;;;;20.33;40.84;95855.22;5005089;28;20371;-61
2022/12/21 01:22:03;;;;;;;9.27;6.90;;;;;;;20.35;40.80;95836.50;5005056;28;20049;-61
2022/12/21 01:24:28;;;;;;;10.23;7.03;;;;;;;20.36;40.88;95840.72;4999181;28;20518;-61
2022/12/21 01:26:54;;;;;;;10.73;7.53;;;;;;;20.30;40.84;95823.63;4985367;28;20064;-62
2022/12/21 01:29:19;;;;;;;9.55;7.45;;;;;;;19.43;40.69;95694.75;4996879;28;20026;-60
2022/12/21 01:31:45;;;;;;;8.90;7.18;;;;;;;18.75;40.33;95588.91;4989600;28;20046;-61
2022/12/21 01:34:10;;;;;;;10.77;7.40;;;;;;;18.93;40.47;95613.09;4987422;28;20120;-60
2022/12/21 01:36:36;;;;;;;9.60;7.13;;;;;;;20.34;40.61;95829.56;4983651;28;20511;-61
2022/12/21 01:39:01;;;;;;;9.63;7.38;;;;;;;20.13;40.90;95798.22;4998610;28;20044;-61
2022/12/21 01:41:27;;;;;;;9.45;7.68;;;;;;;20.32;40.82;95823.88;4985028;28;20502;-61
2022/12/21 01:43:58;;;;;;;11.27;7.90;;;;;;;20.33;40.75;95821.91;4997259;28;20398;-61
2022/12/21 01:46:43;;;;;;;9.90;7.63;;;;;;;20.30;40.48;95834.47;4988100;28;20081;-61
2022/12/21 01:49:28;;;;;;;9.30;6.70;;;;;;;20.33;40.78;95817.25;5004507;28;20104;-61
2022/12/21 01:52:11;;;;;;;9.35;6.95;;;;;;;19.63;40.32;95716.50;4983863;28;20170;-61
2022/12/21 01:54:39;;;;;;;9.68;7.43;;;;;;;20.30;40.65;95801.91;4992366;28;20045;-61
2022/12/21 01:57:06;;;;;;;9.93;7.43;;;;;;;20.25;40.37;95794.47;4946646;28;20023;-61
2022/12/21 01:59:38;;;;;;;8.73;7.15;;;;;;;20.31;40.63;95800.69;4982518;28;20388;-61
2022/12/21 02:02:06;;;;;;;10.82;7.10;;;;;;;20.30;40.60;95796.50;4983360;28;20682;-61
2022/12/21 02:04:31;;;;;;;10.65;7.10;;;;;;;20.32;40.80;95796.75;4966124;28;20046;-61
2022/12/21 02:06:57;;;;;;;11.40;8.18;;;;;;;20.30;40.60;95785.66;4984145;28;20039;-61
2022/12/21 02:09:24;;;;;;;10.48;7.57;;;;;;;20.23;40.54;95780.59;4983572;28;20499;-61
2022/12/21 02:11:50;;;;;;;10.40;7.68;;;;;;;19.35;40.62;95647.56;4995792;28;20037;-61
2022/12/21 02:14:15;;;;;;;10.10;7.32;;;;;;;20.15;40.55;95779.50;4994906;28;20468;-61
2022/12/21 02:17:13;;;;;;;10.02;7.80;;;;;;;20.30;40.50;95796.50;4990714;28;20050;-60
2022/12/21 02:19:44;;;;;;;9.55;7.32;;;;;;;20.31;40.64;95802.66;4987676;28;20133;-61
2022/12/21 02:22:34;;;;;;;9.93;7.40;;;;;;;20.28;40.56;95792.75;4983066;28;20120;-60
2022/12/21 02:25:38;;;;;;;10.77;7.50;;;;;;;20.19;40.66;95774.63;4984411;28;20052;-61
2022/12/21 02:28:14;;;;;;;9.35;7.15;;;;;;;20.19;40.43;95763.78;4989796;28;20422;-60
2022/12/21 02:31:10;;;;;;;10.02;7.40;;;;;;;20.23;40.55;95769.75;4987291;28;20042;-60
2022/12/21 02:33:39;;;;;;;10.35;7.75;;;;;;;20.30;40.60;95777.50;4987795;28;20571;-61
2022/12/21 02:36:10;;;;;;;9.43;7.05;;;;;;;20.28;40.64;95788.06;5005656;28;20489;-61
2022/12/21 02:38:40;;;;;;;10.35;7.30;;;;;;;20.28;40.20;95782.63;5024059;28;20156;-60
2022/12/21 02:41:17;;;;;;;9.98;7.55;;;;;;;20.29;40.42;95778.72;4988153;28;20608;-60
2022/12/21 02:47:06;;;;;;;10.10;7.15;;;;;;;20.26;40.51;95774.22;5012467;28;20053;-61
2022/12/21 02:49:38;;;;;;;10.13;7.07;;;;;;;20.27;40.58;95785.84;4957380;28;20045;-60
2022/12/21 02:52:10;;;;;;;9.27;7.20;;;;;;;19.60;40.42;95695.78;5007582;28;20052;-61
2022/12/21 02:54:39;;;;;;;11.18;7.85;;;;;;;19.47;40.17;95660.09;4986011;28;20050;-60
2022/12/21 02:57:04;;;;;;;9.48;6.95;;;;;;;20.25;40.47;95778.19;4997184;28;20116;-61
2022/12/21 02:59:31;;;;;;;9.25;7.57;;;;;;;20.16;40.62;95758.53;5013905;28;20037;-61
2022/12/21 03:02:21;;;;;;;9.90;6.95;;;;;;;20.08;40.36;95752.03;5001483;28;20038;-61
2022/12/21 03:04:46;;;;;;;;;;;;;;;20.23;40.41;95758.91;5014730;28;20433;-61
2022/12/21 03:07:39;;;;;;;9.90;7.30;;;;;;;20.13;40.53;95749.41;5015506;28;19918;-61
2022/12/21 03:10:38;;;;;;;8.88;7.10;;;;;;;20.23;40.37;95753.47;5020396;28;21149;-61
2022/12/21 03:13:34;;;;;;;11.23;7.60;;;;;;;20.23;40.48;95758.91;5006894;28;20781;-61
2022/12/21 03:16:25;;;;;;;9.18;7.25;;;;;;;20.22;40.69;95752.00;4989316;28;20050;-61
2022/12/21 03:19:02;;;;;;;9.48;7.32;;;;;;;20.03;40.61;95733.72;5016442;28;20037;-62
2022/12/21 03:21:55;;;;;;;10.00;7.28;;;;;;;20.13;40.61;95740.50;5007204;28;20061;-61
2022/12/21 03:24:27;;;;;;;10.65;6.82;;;;;;;20.15;40.34;95741.53;5006599;28;20037;-61
2022/12/21 03:26:54;;;;;;;9.77;7.50;;;;;;;20.18;40.40;95746.03;4987974;28;20077;-61
2022/12/21 03:29:21;;;;;;;10.15;7.45;;;;;;;20.20;40.62;95737.41;5017321;28;20036;-61
2022/12/21 03:31:51;;;;;;;9.68;7.13;;;;;;;20.20;40.39;95738.16;4979373;28;20595;-61
2022/12/21 03:34:23;;;;;;;9.65;7.22;;;;;;;20.21;40.42;95734.22;5008294;28;20038;-61
2022/12/21 03:36:50;;;;;;;9.80;7.40;;;;;;;20.21;40.27;95723.38;4972676;28;20140;-61
2022/12/21 03:39:18;;;;;;;10.55;7.43;;;;;;;20.19;40.68;95725.84;4989622;28;20037;-60
2022/12/21 03:41:47;;;;;;;10.57;7.50;;;;;;;19.44;40.36;95606.84;4984138;28;20568;-60
2022/12/21 03:44:14;;;;;;;10.38;7.88;;;;;;;20.12;40.21;95717.34;4986110;28;20038;-61
2022/12/21 03:46:42;;;;;;;8.85;6.80;;;;;;;20.17;40.54;95711.97;5004933;28;20041;-60
2022/12/21 03:49:12;;;;;;;9.93;7.63;;;;;;;19.57;40.71;95621.59;5023439;28;20033;-61
2022/12/21 03:51:47;;;;;;;9.52;7.30;;;;;;;20.17;40.61;95717.41;5008071;28;20042;-61
2022/12/21 03:54:32;;;;;;;9.07;7.05;;;;;;;20.18;40.33;95708.06;4973077;28;20042;-61
2022/12/21 03:56:57;;;;;;;9.27;7.20;;;;;;;20.20;40.44;95711.03;5019493;28;20041;-61
2022/12/21 03:59:22;;;;;;;10.70;7.30;;;;;;;20.16;40.64;95701.59;5018261;28;20041;-61
2022/12/21 04:02:11;;;;;;;9.23;7.07;;;;;;;19.34;40.17;95569.53;4991154;28;20061;-60
2022/12/21 04:05:09;;;;;;;9.55;7.10;;;;;;;20.17;40.48;95701.13;4992745;28;20060;-61
2022/12/21 04:07:34;;;;;;;9.40;7.30;;;;;;;19.96;40.35;95695.41;4980209;28;20053;-61
2022/12/21 04:10:01;;;;;;;9.82;7.25;;;;;;;20.14;40.61;95699.38;5019764;28;20038;-61
2022/12/21 04:12:36;;;;;;;9.77;6.97;;;;;;;20.14;40.25;95702.06;5004210;28;20038;-60
2022/12/21 04:15:16;;;;;;;9.88;7.43;;;;;;;20.14;40.25;95701.34;5017583;28;20433;-61
2022/12/21 04:17:42;;;;;;;8.48;7.00;;;;;;;19.16;40.00;95551.53;5017984;28;20669;-60
2022/12/21 04:20:10;;;;;;;10.02;7.40;;;;;;;20.14;40.33;95696.66;5005343;28;20139;-61
2022/12/21 04:28:08;;;;;;;9.45;7.25;;;;;;;20.15;40.16;95692.72;5009946;28;20055;-60
2022/12/21 04:30:38;;;;;;;9.63;7.18;;;;;;;20.13;40.50;95683.56;5007795;28;20513;-61
2022/12/21 04:33:04;;;;;;;8.43;6.97;;;;;;;20.13;40.53;95686.28;5022715;28;20029;-61
2022/12/21 04:35:29;;;;;;;10.40;7.50;;;;;;;19.47;40.30;95584.25;4991464;28;20037;-61
2022/12/21 04:37:55;;;;;;;10.60;8.00;;;;;;;20.12;40.46;95677.41;5006744;28;20419;-60
2022/12/21 04:40:20;;;;;;;10.63;7.13;;;;;;;20.12;40.27;95671.97;4989296;28;20086;-61
2022/12/21 04:42:46;;;;;;;9.25;7.00;;;;;;;20.11;40.45;95670.47;5010341;28;20053;-61
2022/12/21 04:45:11;;;;;;;9.70;7.22;;;;;;;19.78;40.04;95625.88;5025080;28;20493;-63
2022/12/21 04:47:37;;;;;;;8.90;6.60;;;;;;;19.96;40.27;95652.03;5012812;28;20525;-62
2022/12/21 04:50:02;;;;;;;9.52;7.07;;;;;;;19.89;40.47;95641.56;5015993;28;20112;-61
2022/12/21 04:52:29;;;;;;;8.45;6.43;;;;;;;20.10;40.26;95685.28;5012950;28;20069;-62
2022/12/21 04:54:55;;;;;;;10.05;7.00;;;;;;;19.03;40.15;95513.19;4984333;28;20045;-61
2022/12/21 04:57:20;;;;;;;9.57;7.15;;;;;;;19.55;40.54;95601.59;4990795;28;20490;-61
2022/12/21 04:59:46;;;;;;;10.38;6.90;;;;;;;19.25;40.07;95546.03;5017402;28;20029;-61
2022/12/21 05:02:11;;;;;;;8.98;7.10;;;;;;;20.04;40.44;95665.47;4993953;28;20046;-61
2022/12/21 05:04:37;;;;;;;9.25;6.88;;;;;;;19.99;40.63;95668.81;5013685;28;20049;-61
2022/12/21 05:07:02;;;;;;;8.13;6.80;;;;;;;19.40;40.38;95575.78;5020312;28;20466;-60
2022/12/21 05:09:28;;;;;;;9.35;7.15;;;;;;;20.08;40.08;95682.28;5013159;28;20040;-61
2022/12/21 05:11:54;;;;;;;9.32;7.15;;;;;;;19.40;40.23;95579.25;5004901;28;20034;-62
2022/12/21 05:14:20;;;;;;;10.13;7.18;;;;;;;20.07;40.46;95697.06;5017343;28;20068;-62
2022/12/21 05:16:45;;;;;;;8.57;6.55;;;;;;;19.96;40.20;95669.03;5011219;28;20068;-62
2022/12/21 05:19:11;;;;;;;8.70;6.90;;;;;;;20.08;40.48;95682.28;5023927;28;20041;-62
2022/12/21 05:21:37;;;;;;;11.18;7.65;;;;;;;20.07;40.33;95674.59;5002454;28;20042;-62
2022/12/21 05:24:02;;;;;;;9.30;6.55;;;;;;;19.23;40.44;95570.09;5004534;28;20060;-61
2022/12/21 05:26:28;;;;;;;9.02;6.40;;;;;;;19.78;40.44;95630.53;4995897;28;20050;-62
2022/12/21 05:28:53;;;;;;;9.60;6.93;;;;;;;20.07;40.29;95680.78;4996817;28;20049;-63
2022/12/21 05:31:19;;;;;;;9.63;7.00;;;;;;;19.92;40.35;95668.47;5006823;28;20606;-62
2022/12/21 05:33:44;;;;;;;9.40;6.75;;;;;;;20.04;40.21;95670.88;4993208;28;20050;-61
2022/12/21 05:36:11;;;;;;;9.20;6.85;;;;;;;19.84;40.60;95639.50;5007277;28;20555;-61
2022/12/21 05:38:37;;;;;;;8.50;6.45;;;;;;;19.99;40.20;95663.41;4997575;28;20463;-61
2022/12/21 05:41:02;;;;;;;9.60;7.00;;;;;;;19.99;40.51;95668.81;4989509;28;20038;-61
2022/12/21 05:43:28;;;;;;;9.45;7.10;;;;;;;20.05;40.06;95677.78;4987524;28;20836;-61
2022/12/21 05:45:53;;;;;;;9.20;7.05;;;;;;;20.04;40.16;95670.88;4999758;28;20095;-62
2022/12/21 05:48:19;;;;;;;9.75;7.05;;;;;;;20.00;40.45;95675.75;5004181;28;20088;-61
2022/12/21 05:50:44;;;;;;;9.82;6.88;;;;;;;20.04;40.33;95676.31;4989222;28;20041;-61
2022/12/21 05:53:09;;;;;;;9.75;7.05;;;;;;;20.03;40.47;95669.38;5003350;28;20045;-61
2022/12/21 05:55:35;;;;;;;9.43;7.05;;;;;;;19.88;40.39;95640.84;4988665;28;20030;-61
2022/12/21 05:58:00;;;;;;;8.80;6.65;;;;;;;20.04;40.23;95684.44;5014660;28;20061;-61
2022/12/21 06:00:26;;;;;;;8.80;6.78;;;;;;;19.98;40.11;95655.75;5006419;28;20053;-62
2022/12/21 06:02:51;;;;;;;9.13;6.88;;;;;;;20.04;40.54;95670.88;5015219;28;20040;-61
2022/12/21 06:05:17;;;;;;;8.45;6.88;;;;;;;18.88;40.53;95492.75;5005868;28;20097;-61
2022/12/21 06:07:42;;;;;;;9.55;6.93;;;;;;;20.04;39.93;95670.88;5004010;28;20042;-61
2022/12/21 06:10:08;;;;;;;9.23;7.00;;;;;;;18.65;40.14;95461.16;5004558;28;20038;-61
2022/12/21 06:12:34;;;;;;;9.32;6.72;;;;;;;19.91;40.00;95655.38;5011939;28;20042;-61
2022/12/21 06:15:00;;;;;;;9.13;6.32;;;;;;;20.03;40.35;95712.75;4975060;28;20115;-61
2022/12/21 06:17:29;;;;;;;9.45;7.05;;;;;;;19.40;40.10;95573.81;5022507;28;20025;-61
2022/12/21 06:19:54;;;;;;;7.93;6.53;;;;;;;19.83;40.58;95624.44;5010656;28;20764;-61
2022/12/21 06:22:19;;;;;;;9.50;6.90;;;;;;;19.22;40.13;95530.72;5023465;28;20045;-61
2022/12/21 06:24:45;;;;;;;10.13;6.72;;;;;;;19.96;40.23;95657.44;4987321;28;20046;-62
2022/12/21 06:27:10;;;;;;;8.73;6.82;;;;;;;19.87;40.13;95633.91;5002097;28;20069;-62
2022/12/21 06:29:36;;;;;;;8.32;6.47;;;;;;;19.98;40.17;95672.00;4971620;28;20041;-61
2022/12/21 06:32:01;;;;;;;8.25;6.30;;;;;;;19.99;40.22;95648.38;5013573;28;20053;-62
2022/12/21 06:34:26;;;;;;;8.70;6.40;;;;;;;20.10;40.03;95657.41;5007730;28;20033;-62
2022/12/21 06:36:52;;;;;;;9.15;6.90;;;;;;;20.09;40.00;95656.66;5003898;28;20434;-62
2022/12/21 06:39:17;;;;;;;7.57;6.25;;;;;;;20.08;40.28;95676.09;5006906;28;21759;-61
2022/12/21 06:41:43;;;;;;;7.95;6.13;;;;;;;19.86;40.17;95627.00;4997337;28;20041;-61
2022/12/21 06:44:08;;;;;;;8.70;6.53;;;;;;;20.08;40.08;95649.75;5005292;28;20053;-61
2022/12/21 06:46:34;;;;;;;8.82;6.15;;;;;;;20.10;39.78;95658.16;5009573;28;20049;-61
2022/12/21 06:48:59;;;;;;;9.93;6.53;;;;;;;20.05;39.75;95655.38;5024129;28;20442;-61
2022/12/21 06:51:25;;;;;;;9.50;6.90;;;;;;;20.10;40.02;95669.00;5008133;28;20529;-61
2022/12/21 06:53:51;;;;;;;8.40;5.88;;;;;;;20.12;39.99;95692.94;5006064;28;20042;-61
2022/12/21 06:56:19;;;;;;;8.63;6.40;;;;;;;20.01;40.03;95654.81;5007285;28;20116;-61
2022/12/21 06:58:44;;;;;;;8.80;7.05;;;;;;;19.36;40.25;95561.69;5007102;28;20042;-61
2022/12/21 07:01:14;;;;;;;8.50;6.18;;;;;;;20.35;39.42;95662.94;5007852;28;20092;-61
2022/12/21 07:03:43;;;;;;;9.25;7.05;;;;;;;19.31;39.17;95468.34;5006766;28;20482;-61
2022/12/21 07:06:09;;;;;;;8.85;6.35;;;;;;;20.42;39.17;95624.56;4989817;28;20041;-61
2022/12/21 07:08:34;;;;;;;8.95;6.60;;;;;;;20.95;38.88;95676.53;5007876;28;20030;-61
2022/12/21 07:11:14;;;;;;;9.55;7.03;;;;;;;20.81;38.79;95633.94;5019380;28;20096;-61
2022/12/21 07:13:40;;;;;;;9.50;7.00;;;;;;;21.17;38.45;95675.53;5009142;28;20098;-61
2022/12/21 07:16:06;;;;;;;8.20;6.20;;;;;;;21.09;38.46;95677.19;5011202;28;20307;-61
2022/12/21 07:18:32;;;;;;;9.73;7.10;;;;;;;21.28;38.38;95677.63;5013850;28;20585;-61
2022/12/21 07:21:03;;;;;;;9.35;6.50;;;;;;;21.32;38.19;95678.88;5012503;28;20064;-61
2022/12/21 07:23:29;;;;;;;7.68;6.25;;;;;;;21.33;38.28;95664.09;4987431;28;20030;-61
2022/12/21 07:25:56;;;;;;;9.48;6.80;;;;;;;21.44;38.12;95680.50;4995155;28;20073;-61
2022/12/21 07:28:22;;;;;;;9.30;6.95;;;;;;;21.46;38.11;95694.34;4998306;28;20056;-61
2022/12/21 07:30:48;;;;;;;8.65;6.47;;;;;;;21.59;37.92;95681.16;5006739;28;20422;-61
2022/12/21 07:33:19;;;;;;;9.30;6.65;;;;;;;21.65;37.70;95669.09;5015939;28;20072;-61
2022/12/21 07:35:48;;;;;;;10.00;6.45;;;;;;;20.47;37.60;95480.09;4993393;28;20038;-61
2022/12/21 07:38:13;;;;;;;8.55;6.38;;;;;;;21.74;37.72;95670.91;5007551;28;20184;-60
2022/12/21 07:40:39;;;;;;;10.18;6.60;;;;;;;21.32;37.71;95610.97;5007899;28;20526;-61
2022/12/21 07:43:10;;;;;;;9.32;6.47;;;;;;;21.81;37.67;95665.00;5018719;28;20046;-61
2022/12/21 07:45:37;;;;;;;9.93;6.50;;;;;;;21.86;37.23;95669.75;5002954;28;20119;-62
2022/12/21 07:48:02;;;;;;;8.98;6.75;;;;;;;21.90;37.39;95667.53;5018677;28;20560;-61
2022/12/21 07:50:28;;;;;;;9.38;6.97;;;;;;;21.18;37.31;95546.66;5006006;28;20084;-61
2022/12/21 07:52:53;;;;;;;8.77;7.15;;;;;;;21.21;37.27;95531.38;5011708;28;20053;-62
2022/12/21 07:55:19;;;;;;;9.25;6.95;;;;;;;21.96;37.07;95660.94;5005470;28;20503;-61
2022/12/21 07:57:44;;;;;;;9.38;6.97;;;;;;;22.06;37.23;95663.00;5014446;28;20041;-61
2022/12/21 08:00:10;;;;;;;8.73;6.43;;;;;;;21.35;37.15;95555.69;5012659;28;20534;-62
2022/12/21 08:02:35;;;;;;;7.93;6.60;;;;;;;21.29;36.98;95549.47;5027190;28;20029;-60
2022/12/21 08:05:01;;;;;;;8.43;6.30;;;;;;;22.00;37.06;95651.34;4992205;28;20042;-62
2022/12/21 08:07:26;;;;;;;7.72;6.10;;;;;;;21.42;36.88;95551.78;5015442;28;20048;-61
2022/12/21 08:09:52;;;;;;;8.48;6.25;;;;;;;22.25;36.78;95666.09;5012873;28;20049;-62
2022/12/21 08:12:18;;;;;;;8.60;6.30;;;;;;;22.15;36.86;95654.66;5026096;28;20495;-62
2022/12/21 08:14:43;;;;;;;8.10;6.40;;;;;;;22.30;37.03;95666.13;5005371;28;20033;-62
2022/12/21 08:17:09;;;;;;;8.35;6.53;;;;;;;22.32;36.85;95660.94;5015471;28;20036;-62
2022/12/21 08:19:34;;;;;;;8.73;6.38;;;;;;;22.24;36.54;95638.16;4991499;28;20514;-62
2022/12/21 08:21:59;;;;;;;9.23;6.53;;;;;;;22.38;36.94;95653.56;4998567;28;20127;-62
2022/12/21 08:24:25;;;;;;;9.30;6.25;;;;;;;22.34;36.43;95631.25;5009482;28;20081;-60
2022/12/21 08:26:50;;;;;;;8.90;6.80;;;;;;;22.23;36.69;95608.72;5004697;28;20054;-61
2022/12/21 08:29:16;;;;;;;8.63;6.47;;;;;;;22.36;36.84;95623.38;4988692;28;20510;-61
2022/12/21 08:31:41;;;;;;;8.75;6.45;;;;;;;22.47;36.57;95631.59;5015747;28;20029;-61
2022/12/21 08:34:07;;;;;;;10.05;7.00;;;;;;;22.27;36.61;95609.97;5008729;28;20695;-61
2022/12/21 08:36:32;;;;;;;9.82;6.72;;;;;;;22.34;36.80;95620.38;5005113;28;20038;-62
2022/12/21 08:38:57;;;;;;;8.10;6.50;;;;;;;22.01;36.72;95592.97;5018645;28;20493;-61
2022/12/21 08:41:24;;;;;;;10.80;7.43;;;;;;;22.07;37.03;95617.50;5012506;28;20037;-61
2022/12/21 08:43:49;;;;;;;8.68;6.68;;;;;;;22.16;37.22;95609.13;4994832;28;20057;-61
2022/12/21 08:46:15;;;;;;;7.85;6.25;;;;;;;22.23;36.59;95604.00;5000442;28;20557;-61
2022/12/21 08:48:40;;;;;;;9.70;7.10;;;;;;;22.40;36.72;95596.66;4987727;28;20052;-60
2022/12/21 08:51:09;;;;;;;8.55;6.68;;;;;;;22.39;36.78;95608.81;5005888;28;20072;-62
2022/12/21 08:53:35;;;;;;;9.52;6.90;;;;;;;22.30;36.91;95597.34;5012379;28;20037;-62
2022/12/21 08:56:00;;;;;;;8.90;6.72;;;;;;;22.19;37.03;95603.47;4998910;28;20103;-61
2022/12/21 08:58:26;;;;;;;10.07;6.75;;;;;;;22.13;36.95;95580.91;5006488;28;20046;-61
2022/12/21 09:00:52;;;;;;;8.93;6.60;;;;;;;22.30;36.84;95592.69;5011544;28;20045;-61
2022/12/21 09:03:18;;;;;;;8.32;6.35;;;;;;;22.25;37.10;95568.16;5006595;28;20065;-61
2022/12/21 09:05:45;;;;;;;8.13;6.57;;;;;;;22.48;36.85;95589.50;5016111;28;20032;-61
2022/12/21 09:08:11;;;;;;;9.00;6.60;;;;;;;22.21;36.59;95551.31;5006878;28;20056;-61
2022/12/21 09:10:36;;;;;;;8.70;6.38;;;;;;;22.26;36.95;95586.72;5015884;28;20033;-62
2022/12/21 09:13:02;;;;;;;8.88;6.47;;;;;;;22.36;37.12;95579.84;5007486;28;20049;-61
2022/12/21 09:15:27;;;;;;;9.43;6.50;;;;;;;22.42;36.85;95578.63;5016292;28;20042;-61
2022/12/21 09:17:53;;;;;;;8.63;6.65;;;;;;;22.45;36.82;95568.72;5017903;28;20056;-61
2022/12/21 09:20:18;;;;;;;9.05;7.03;;;;;;;22.43;36.82;95563.03;5013698;28;20041;-62
2022/12/21 09:22:43;;;;;;;9.48;6.45;;;;;;;22.52;36.63;95565.53;5017218;28;20433;-61
2022/12/21 09:25:09;;;;;;;8.60;6.43;;;;;;;22.44;36.49;95537.31;5005100;28;20103;-61
2022/12/21 09:27:35;;;;;;;8.30;6.57;;;;;;;22.60;36.44;95544.75;5015701;28;20049;-61
2022/12/21 09:30:00;;;;;;;8.70;6.45;;;;;;;21.99;36.45;95448.59;5007465;28;20582;-61
2022/12/21 09:32:25;;;;;;;9.07;6.07;;;;;;;21.90;36.47;95428.28;4996344;28;20041;-61
2022/12/21 09:34:51;;;;;;;8.20;6.47;;;;;;;22.61;36.34;95535.38;5006809;28;20049;-60
2022/12/21 09:37:17;;;;;;;8.63;6.32;;;;;;;22.45;36.38;95519.72;4998569;28;20583;-61
2022/12/21 09:39:43;;;;;;;7.82;6.35;;;;;;;22.51;36.62;95525.94;4987154;28;20530;-61
2022/12/21 09:42:25;;;;;;;8.18;6.22;;;;;;;22.41;36.71;95500.19;5015539;28;20048;-61
2022/12/21 09:45:07;;;;;;;8.50;6.30;;;;;;;22.61;36.35;95519.03;4971444;28;20030;-60
2022/12/21 09:47:50;;;;;;;12.73;6.88;;;;;;;22.54;36.64;95520.28;5007037;28;20032;-60
2022/12/21 09:50:37;;;;;;;21.85;7.00;;;;;;;22.71;36.51;95506.69;5016967;28;20510;-61
2022/12/21 09:53:37;;;;;;;11.00;6.22;;;;;;;22.81;36.17;95499.75;5001386;28;20064;-61
2022/12/21 09:56:03;;;;;;;;;;;;;;;22.98;36.30;95515.66;5003749;28;20586;-61
2022/12/21 09:58:42;;;;;;;11.90;7.07;;;;;;;22.99;36.21;95506.25;5022876;28;20004;-60
2022/12/21 10:01:21;;;;;;;11.68;7.20;;;;;;;21.83;36.33;95352.66;5012566;28;20057;-61
2022/12/21 10:04:10;;;;;;;12.90;7.10;;;;;;;23.14;36.55;95501.31;5014580;28;20133;-61
2022/12/21 10:06:41;;;;;;;12.07;6.82;;;;;;;23.12;36.00;95471.09;4986970;28;20086;-62
2022/12/21 10:09:15;;;;;;;16.45;7.65;;;;;;;23.20;35.83;95482.97;5005335;28;20025;-61
2022/12/21 10:12:19;;;;;;;13.80;6.70;;;;;;;23.28;36.53;95473.06;5006621;28;20033;-60
2022/12/21 10:15:02;;;;;;;15.85;6.70;;;;;;;23.37;36.42;95470.06;5019479;28;20060;-62
2022/12/21 10:17:57;;;;;;;14.90;7.20;;;;;;;23.60;36.22;95466.06;5003600;28;20038;-61
2022/12/21 10:20:46;;;;;;;13.57;6.70;;;;;;;23.72;35.34;95456.63;4979597;28;20107;-63
2022/12/21 10:23:24;;;;;;;11.27;6.88;;;;;;;23.79;35.77;95456.13;5022732;28;20136;-62
2022/12/21 10:26:02;;;;;;;12.18;7.03;;;;;;;23.52;35.85;95405.13;4986619;28;20049;-61
2022/12/21 10:28:48;;;;;;;11.10;6.97;;;;;;;23.77;35.52;95436.81;5004118;28;20060;-62
2022/12/21 10:31:44;;;;;;;10.57;6.47;;;;;;;23.93;35.83;95434.75;5022614;28;20041;-61
2022/12/21 10:34:46;;;;;;;9.45;6.50;;;;;;;24.07;35.61;95422.75;4999201;28;20046;-61
2022/12/21 10:37:17;;;;;;;9.55;6.43;;;;;;;24.02;35.69;95404.44;4949914;28;20511;-61
2022/12/21 10:39:46;;;;;;;10.40;6.65;;;;;;;24.12;35.71;95413.81;4984895;28;20116;-63
2022/12/21 10:42:27;;;;;;;12.48;7.00;;;;;;;24.26;35.74;95423.66;5011821;28;20053;-61
2022/12/21 10:44:52;;;;;;;9.63;6.68;;;;;;;23.72;34.87;95310.13;5017048;28;20041;-61
2022/12/21 10:47:22;;;;;;;10.38;7.28;;;;;;;24.45;34.90;95424.56;5013601;28;20482;-62
2022/12/21 10:50:00;;;;;;;9.60;6.88;;;;;;;23.13;35.03;95221.94;4986443;28;20120;-61
2022/12/21 10:52:48;;;;;;;9.68;6.85;;;;;;;24.55;34.93;95428.47;4993069;28;20041;-61
2022/12/21 10:55:16;;;;;;;10.77;7.30;;;;;;;24.54;35.00;95411.34;5002175;28;20050;-61
2022/12/21 10:57:42;;;;;;;9.93;7.00;;;;;;;24.58;34.81;95413.81;5011080;28;20042;-63
2022/12/21 11:00:20;;;;;;;10.88;6.90;;;;;;;24.53;35.17;95404.41;4990320;28;20042;-62
2022/12/21 11:02:46;;;;;;;10.25;7.50;;;;;;;24.80;35.14;95405.44;5019191;28;20955;-62
2022/12/21 11:05:32;;;;;;;8.57;6.53;;;;;;;25.03;34.50;95399.31;5000506;28;20091;-62
2022/12/21 11:08:13;;;;;;;10.02;6.32;;;;;;;24.50;34.45;95311.84;5022119;28;20053;-62
2022/12/21 11:10:44;;;;;;;9.10;6.60;;;;;;;24.85;34.29;95370.59;5013838;28;20046;-63
2022/12/21 11:13:11;;;;;;;11.25;6.93;;;;;;;24.82;34.37;95386.56;4999568;28;20114;-62
2022/12/21 11:15:36;;;;;;;10.15;6.80;;;;;;;24.99;34.70;95380.47;4994348;28;20496;-62
2022/12/21 11:18:02;;;;;;;10.20;6.88;;;;;;;24.20;34.15;95267.41;5006013;28;20030;-62
2022/12/21 11:20:27;;;;;;;10.43;6.90;;;;;;;24.76;34.71;95361.28;4985785;28;20033;-62
2022/12/21 11:22:54;;;;;;;8.80;6.88;;;;;;;24.32;34.33;95263.34;4986773;28;20507;-62
2022/12/21 11:25:27;;;;;;;12.82;7.00;;;;;;;25.01;34.34;95358.81;5000292;28;20050;-62
2022/12/21 11:28:00;;;;;;;10.18;7.40;;;;;;;24.98;34.04;95357.09;4992471;28;20047;-61
2022/12/21 11:30:27;;;;;;;9.80;6.97;;;;;;;25.12;34.65;95361.44;4996056;28;20544;-61
2022/12/21 11:32:54;;;;;;;10.02;7.18;;;;;;;25.17;34.47;95363.41;5015099;28;20046;-61
2022/12/21 11:35:19;;;;;;;11.95;7.22;;;;;;;25.21;34.27;95363.84;4985549;28;20026;-62
2022/12/21 11:37:46;;;;;;;8.75;7.22;;;;;;;25.26;34.31;95393.13;5011177;28;20222;-62
2022/12/21 11:40:11;;;;;;;9.82;7.32;;;;;;;25.37;34.31;95360.19;5023455;28;20076;-61
2022/12/21 11:42:58;;;;;;;10.20;6.75;;;;;;;25.28;34.31;95355.06;5022839;28;20120;-62
2022/12/21 11:45:23;;;;;;;8.90;6.63;;;;;;;25.46;34.04;95346.19;5008374;28;20166;-61
2022/12/21 11:48:04;;;;;;;9.55;7.07;;;;;;;25.53;33.92;95345.56;5008396;28;20779;-61
2022/12/21 11:50:57;;;;;;;10.43;7.28;;;;;;;25.47;33.92;95325.75;5018187;28;20069;-60
2022/12/21 11:53:58;;;;;;;9.15;7.32;;;;;;;25.53;33.75;95348.31;4977006;28;20085;-64